Terrace Airport

CYXT | YXT

Terrace , British-Columbia , Canada

Wednesday, October 23rd, 2019 | 22:43

Weather

CYXT 240500Z 20011G17KT 10SM -RA FEW006 SCT015 OVC050 07/06 A3019 RMK SF2SC2SC4 SLP232

Charts

No Charts Available

Gates

17 Available

Runways

2 Available

Events

No events for this airport


New event